Time;durP1;ratioP1;P1;durP2;ratioP2;P2;SDS_P1;SDS_P2;PMS_P1;PMS_P2;Temp;Humidity;BMP_temperature;BMP_pressure;BME280_temperature;BME280_humidity;BME280_pressure;Samples;Min_cycle;Max_cycle;Signal;HPM_P1;HPM_P2
2021/12/22 00:00:18;;;;;;;41.42;37.60;;;-2.90;92.10;;;;;;5034766;28;20208;-72
2021/12/22 00:02:48;;;;;;;40.75;37.35;;;-2.80;92.10;;;;;;5034900;28;20198;-72
2021/12/22 00:05:17;;;;;;;41.83;37.95;;;-2.80;91.50;;;;;;5034785;28;20223;-72
2021/12/22 00:07:44;;;;;;;40.67;37.10;;;-2.70;91.20;;;;;;5034819;28;20198;-73
2021/12/22 00:10:11;;;;;;;40.85;37.00;;;-2.80;90.40;;;;;;5034431;28;20220;-73
2021/12/22 00:12:38;;;;;;;40.22;36.67;;;-3.00;90.00;;;;;;5034867;28;20194;-73
2021/12/22 00:15:06;;;;;;;38.88;35.85;;;-3.00;90.20;;;;;;5034555;28;20707;-73
2021/12/22 00:17:35;;;;;;;39.67;36.40;;;-2.90;90.00;;;;;;5034614;28;20255;-73
2021/12/22 00:20:02;;;;;;;39.22;36.05;;;-2.90;89.50;;;;;;5034501;28;20198;-72
2021/12/22 00:22:29;;;;;;;37.40;34.35;;;-3.00;89.60;;;;;;5034531;28;20212;-73
2021/12/22 00:24:56;;;;;;;86.10;38.67;;;-3.10;90.70;;;;;;5034554;28;20313;-73
2021/12/22 00:27:23;;;;;;;39.70;36.17;;;-3.10;95.50;;;;;;5034330;28;20198;-72
2021/12/22 00:29:51;;;;;;;40.28;36.88;;;-3.00;93.70;;;;;;5034326;28;20220;-72
2021/12/22 00:32:19;;;;;;;39.70;36.00;;;-3.10;91.80;;;;;;5033680;28;20204;-72
2021/12/22 00:34:52;;;;;;;41.38;37.97;;;-3.00;91.30;;;;;;5034248;28;20249;-72
2021/12/22 00:37:20;;;;;;;39.17;35.88;;;-3.10;90.60;;;;;;5034332;28;20224;-73
2021/12/22 00:39:47;;;;;;;39.28;35.92;;;-3.10;90.10;;;;;;5033895;28;20577;-72
2021/12/22 00:42:15;;;;;;;38.10;34.83;;;-3.10;90.20;;;;;;5034270;28;20215;-73
2021/12/22 00:44:43;;;;;;;38.05;34.90;;;-3.20;89.80;;;;;;5034045;28;20226;-73
2021/12/22 00:47:11;;;;;;;39.72;36.03;;;-3.30;90.10;;;;;;5033947;28;20686;-73
2021/12/22 00:49:37;;;;;;;40.72;37.22;;;-3.30;90.50;;;;;;5033775;28;20228;-73
2021/12/22 00:52:07;;;;;;;39.95;36.60;;;-3.40;90.40;;;;;;5033960;28;20203;-72
2021/12/22 00:54:34;;;;;;;42.05;38.47;;;-3.40;90.60;;;;;;5033824;28;20599;-73
2021/12/22 00:57:02;;;;;;;1203.75;209.00;;;-3.40;90.20;;;;;;5033833;28;20198;-72
2021/12/22 00:59:29;;;;;;;1991.53;323.05;;;-3.40;93.20;;;;;;5033666;28;20606;-73
2021/12/22 01:01:56;;;;;;;1058.07;171.93;;;-3.30;99.80;;;;;;5033931;28;20678;-73
2021/12/22 01:04:23;;;;;;;99.88;45.22;;;-3.30;99.90;;;;;;5033725;28;20221;-73
2021/12/22 01:06:50;;;;;;;39.38;35.92;;;-3.30;99.50;;;;;;5033608;28;20197;-73
2021/12/22 01:09:18;;;;;;;39.55;36.00;;;-3.40;96.40;;;;;;5033178;28;20391;-72
2021/12/22 01:11:45;;;;;;;38.70;35.40;;;-3.50;95.10;;;;;;5033718;28;20202;-72
2021/12/22 01:14:13;;;;;;;40.42;36.75;;;-3.60;93.80;;;;;;5033408;28;20213;-73
2021/12/22 01:16:45;;;;;;;38.45;35.15;;;-3.60;93.80;;;;;;5033486;28;20244;-73
2021/12/22 01:19:15;;;;;;;38.53;35.03;;;-3.60;93.40;;;;;;5033441;28;20212;-72
2021/12/22 01:21:46;;;;;;;40.03;36.38;;;-3.60;92.70;;;;;;5033648;28;20203;-72
2021/12/22 01:24:22;;;;;;;40.65;37.15;;;-3.50;92.50;;;;;;5033268;28;20225;-73
2021/12/22 01:26:56;;;;;;;41.45;37.85;;;-3.60;92.00;;;;;;5033371;28;20201;-72
2021/12/22 01:29:23;;;;;;;40.33;36.83;;;-3.50;91.80;;;;;;5033191;28;20204;-72
2021/12/22 01:31:50;;;;;;;40.75;37.25;;;-3.50;92.50;;;;;;5033248;28;20287;-72
2021/12/22 01:34:17;;;;;;;42.63;38.83;;;-3.50;92.50;;;;;;5032916;28;20288;-72
2021/12/22 01:36:46;;;;;;;39.38;36.08;;;-3.50;93.70;;;;;;5033211;28;20204;-73
2021/12/22 01:39:13;;;;;;;39.83;36.25;;;-3.60;92.00;;;;;;5032975;28;20562;-72
2021/12/22 01:41:40;;;;;;;39.47;35.88;;;-3.50;92.00;;;;;;5032909;28;20210;-72
2021/12/22 01:44:09;;;;;;;39.45;36.00;;;-3.50;91.10;;;;;;5032875;28;20225;-72
2021/12/22 01:49:49;;;;;;;40.08;36.47;;;-3.50;92.70;;;;;;5032838;28;20562;-72
2021/12/22 01:52:16;;;;;;;39.17;35.75;;;-3.40;92.20;;;;;;5033028;28;20255;-72
2021/12/22 01:54:50;;;;;;;39.47;35.97;;;-3.40;91.90;;;;;;5032751;28;20222;-73
2021/12/22 01:57:18;;;;;;;37.53;34.22;;;-3.40;91.50;;;;;;5032935;28;20201;-72
2021/12/22 01:59:49;;;;;;;40.53;37.03;;;-3.40;91.30;;;;;;5032592;28;20198;-73
2021/12/22 02:02:17;;;;;;;38.72;35.47;;;-3.40;90.80;;;;;;5032822;28;20193;-73
2021/12/22 02:04:46;;;;;;;39.75;36.17;;;-3.40;90.20;;;;;;5032619;28;20283;-72
2021/12/22 02:07:15;;;;;;;38.45;35.13;;;-3.30;89.50;;;;;;5032790;28;20201;-72
2021/12/22 02:10:02;;;;;;;40.03;36.70;;;-3.40;89.20;;;;;;5032419;28;20213;-72
2021/12/22 02:12:33;;;;;;;41.53;37.83;;;-3.50;88.80;;;;;;5032857;28;20203;-72
2021/12/22 02:15:03;;;;;;;39.42;36.10;;;-3.60;89.00;;;;;;5032599;28;20218;-73
2021/12/22 02:17:30;;;;;;;40.22;36.65;;;-3.80;89.60;;;;;;5032659;28;20734;-72
2021/12/22 02:19:58;;;;;;;40.33;37.00;;;-3.80;90.00;;;;;;5032398;28;20192;-72
2021/12/22 02:22:27;;;;;;;39.20;36.13;;;-3.80;90.10;;;;;;5032487;28;20193;-73
2021/12/22 02:25:00;;;;;;;40.60;37.10;;;-3.90;90.60;;;;;;5032421;28;20225;-72
2021/12/22 02:27:32;;;;;;;39.67;36.38;;;-3.90;90.90;;;;;;5032485;28;20296;-72
2021/12/22 02:30:02;;;;;;;1855.10;308.35;;;-3.90;91.00;;;;;;5032298;28;20221;-72
2021/12/22 02:33:06;;;;;;;42.67;38.60;;;-3.80;91.50;;;;;;5032445;28;20201;-72
2021/12/22 02:35:43;;;;;;;41.03;37.58;;;-3.80;92.40;;;;;;5031934;28;20703;-73
2021/12/22 02:38:16;;;;;;;39.28;35.97;;;-3.90;92.10;;;;;;5032415;28;20204;-73
2021/12/22 02:40:44;;;;;;;42.00;38.55;;;-3.90;91.90;;;;;;5032123;28;20189;-73
2021/12/22 02:43:11;;;;;;;39.78;36.47;;;-4.00;91.90;;;;;;5032306;28;20251;-72
2021/12/22 02:45:38;;;;;;;40.08;36.63;;;-4.00;91.80;;;;;;5032359;28;20194;-73
2021/12/22 02:48:06;;;;;;;41.47;38.08;;;-4.00;91.80;;;;;;5032382;28;20205;-72
2021/12/22 02:50:36;;;;;;;40.20;36.83;;;-3.90;91.60;;;;;;5031963;28;20221;-72
2021/12/22 02:53:08;;;;;;;40.72;37.25;;;-3.90;91.50;;;;;;5032468;28;20271;-72
2021/12/22 02:55:45;;;;;;;42.47;37.50;;;-3.90;91.40;;;;;;5033065;28;20590;-72
2021/12/22 02:58:20;;;;;;;40.83;37.42;;;-3.80;91.30;;;;;;5036164;28;20288;-72
2021/12/22 03:01:01;;;;;;;39.97;36.35;;;-3.80;91.40;;;;;;5036112;28;20199;-72
2021/12/22 03:03:45;;;;;;;40.97;37.45;;;-3.80;91.70;;;;;;5035969;28;20201;-73
2021/12/22 03:06:18;;;;;;;40.60;37.17;;;-3.80;91.50;;;;;;5036020;28;20231;-73
2021/12/22 03:08:45;;;;;;;41.30;37.70;;;-3.80;91.40;;;;;;5035843;28;20213;-73
2021/12/22 03:11:12;;;;;;;41.35;37.40;;;-3.80;91.00;;;;;;5035646;28;20221;-72
2021/12/22 03:13:38;;;;;;;41.05;37.63;;;-3.80;90.90;;;;;;5036042;28;20308;-72
2021/12/22 03:16:06;;;;;;;42.75;39.15;;;-3.80;90.90;;;;;;5035747;28;20204;-72
2021/12/22 03:18:34;;;;;;;40.15;36.95;;;-3.80;90.80;;;;;;5035740;28;20201;-72
2021/12/22 03:21:02;;;;;;;42.92;39.15;;;-3.80;91.10;;;;;;5035683;28;20204;-73
2021/12/22 03:23:30;;;;;;;77.13;41.80;;;-3.80;91.20;;;;;;5035590;28;20201;-73
2021/12/22 03:25:58;;;;;;;662.53;117.57;;;-3.80;91.20;;;;;;5035754;28;20288;-73
2021/12/22 03:28:25;;;;;;;42.42;38.63;;;-3.80;93.80;;;;;;5035663;28;20197;-72
2021/12/22 03:30:53;;;;;;;43.13;39.22;;;-3.80;93.20;;;;;;5035270;28;20690;-72
2021/12/22 03:33:20;;;;;;;42.25;38.20;;;-3.70;92.90;;;;;;5035447;28;20193;-72
2021/12/22 03:35:47;;;;;;;40.83;37.33;;;-3.80;91.70;;;;;;5035219;28;20232;-72
2021/12/22 03:38:14;;;;;;;42.03;38.42;;;-3.80;91.40;;;;;;5035368;28;20284;-72
2021/12/22 03:40:43;;;;;;;42.55;38.83;;;-3.90;90.80;;;;;;5035230;28;20197;-72
2021/12/22 03:43:10;;;;;;;40.90;37.50;;;-3.90;90.70;;;;;;5035216;28;20202;-72
2021/12/22 03:45:36;;;;;;;43.53;39.75;;;-4.00;90.70;;;;;;5035286;28;20197;-72
2021/12/22 03:48:04;;;;;;;40.50;37.20;;;-4.10;90.80;;;;;;5035234;28;20561;-73
2021/12/22 03:50:31;;;;;;;41.28;37.92;;;-4.10;91.00;;;;;;5034995;28;20219;-72
2021/12/22 03:52:57;;;;;;;273.30;66.38;;;-4.10;91.10;;;;;;5035130;28;20279;-72
2021/12/22 03:55:24;;;;;;;1936.85;332.45;;;-4.10;95.60;;;;;;5034925;28;20706;-72
2021/12/22 03:57:53;;;;;;;41.42;37.72;;;-4.00;98.80;;;;;;5035040;28;20566;-72
2021/12/22 04:00:20;;;;;;;42.92;39.17;;;-4.00;97.90;;;;;;5034886;28;20292;-73
2021/12/22 04:02:47;;;;;;;43.60;39.70;;;-4.00;96.40;;;;;;5034958;28;20236;-72
2021/12/22 04:05:14;;;;;;;43.47;39.50;;;-4.00;95.20;;;;;;5034933;28;20303;-72
2021/12/22 04:07:41;;;;;;;43.42;39.03;;;-4.10;93.90;;;;;;5033617;28;20737;-72
2021/12/22 04:10:19;;;;;;;42.78;38.95;;;-4.20;93.00;;;;;;5034590;28;20213;-72
2021/12/22 04:12:47;;;;;;;42.10;37.97;;;-4.20;93.00;;;;;;5034839;28;20208;-72
2021/12/22 04:15:15;;;;;;;43.25;39.65;;;-4.20;92.70;;;;;;5034829;28;20222;-72
2021/12/22 04:17:42;;;;;;;42.53;38.78;;;-4.10;92.40;;;;;;5034688;28;20201;-72
2021/12/22 04:20:10;;;;;;;40.80;37.20;;;-4.10;92.00;;;;;;5034565;28;20194;-72
2021/12/22 04:22:37;;;;;;;43.38;39.67;;;-4.10;92.10;;;;;;5034566;28;20284;-72
2021/12/22 04:25:06;;;;;;;43.17;39.30;;;-4.10;91.80;;;;;;5034479;28;20702;-72
2021/12/22 04:27:33;;;;;;;43.33;39.40;;;-4.00;91.80;;;;;;5034551;28;20220;-72
2021/12/22 04:30:00;;;;;;;42.95;38.85;;;-3.90;91.60;;;;;;5034336;28;20343;-72
2021/12/22 04:32:28;;;;;;;44.25;40.03;;;-3.90;90.80;;;;;;5034342;28;20598;-72
2021/12/22 04:34:55;;;;;;;42.95;39.33;;;-3.90;90.40;;;;;;5034201;28;20258;-72
2021/12/22 04:37:22;;;;;;;44.05;40.28;;;-3.90;89.80;;;;;;5034335;28;20208;-72
2021/12/22 04:39:49;;;;;;;43.65;39.97;;;-4.00;89.80;;;;;;5033877;28;20197;-72
2021/12/22 04:42:16;;;;;;;42.38;38.97;;;-4.10;90.20;;;;;;5034350;28;20193;-72
2021/12/22 04:44:43;;;;;;;492.92;97.25;;;-4.10;90.60;;;;;;5034141;28;20224;-72
2021/12/22 04:47:10;;;;;;;43.03;39.33;;;-4.10;90.80;;;;;;5034080;28;20619;-72
2021/12/22 04:49:40;;;;;;;130.55;47.80;;;-4.10;90.70;;;;;;5033949;28;20207;-72
2021/12/22 04:52:09;;;;;;;44.80;40.83;;;-4.10;92.00;;;;;;5033897;28;20319;-72
2021/12/22 04:54:47;;;;;;;45.92;41.60;;;-4.10;92.00;;;;;;5033885;28;20216;-72
2021/12/22 04:57:14;;;;;;;476.50;85.22;;;-4.10;92.70;;;;;;5034065;28;20296;-72
2021/12/22 04:59:41;;;;;;;44.00;40.20;;;-4.00;92.20;;;;;;5033912;28;20237;-72
2021/12/22 05:02:07;;;;;;;42.33;38.85;;;-4.00;92.40;;;;;;5033868;28;20193;-72
2021/12/22 05:04:34;;;;;;;94.07;47.00;;;-4.00;91.70;;;;;;5033761;28;20304;-72
2021/12/22 05:07:03;;;;;;;47.00;42.40;;;-4.00;91.50;;;;;;5033825;28;20232;-72
2021/12/22 05:09:30;;;;;;;43.47;39.72;;;-4.00;91.70;;;;;;5033476;28;20207;-72
2021/12/22 05:11:56;;;;;;;45.03;41.00;;;-4.10;91.60;;;;;;5033634;28;20213;-72
2021/12/22 05:14:23;;;;;;;45.13;41.10;;;-4.10;91.40;;;;;;5033560;28;20308;-72
2021/12/22 05:16:53;;;;;;;53.03;42.90;;;-4.10;91.00;;;;;;5033510;28;20284;-72
2021/12/22 05:19:19;;;;;;;1749.63;319.33;;;-4.10;91.00;;;;;;5032965;28;20805;-72
2021/12/22 05:21:46;;;;;;;44.33;40.13;;;-4.00;91.30;;;;;;5033715;28;20216;-72
2021/12/22 05:24:15;;;;;;;241.35;66.95;;;-4.00;92.50;;;;;;5033248;28;20368;-72
2021/12/22 05:26:42;;;;;;;83.07;50.03;;;-4.00;92.90;;;;;;5033471;28;20293;-71
2021/12/22 05:29:09;;;;;;;47.60;43.03;;;-4.10;93.00;;;;;;5033111;28;20200;-71
2021/12/22 05:31:36;;;;;;;46.22;42.17;;;-4.00;95.70;;;;;;5033294;28;20221;-71
2021/12/22 05:34:03;;;;;;;45.53;41.20;;;-4.00;94.50;;;;;;5033027;28;20752;-71
2021/12/22 05:36:30;;;;;;;45.75;41.53;;;-4.00;93.40;;;;;;5032975;28;20281;-71
2021/12/22 05:38:57;;;;;;;47.40;43.17;;;-4.20;92.30;;;;;;5033307;28;20208;-71
2021/12/22 05:41:25;;;;;;;47.28;43.30;;;-4.20;92.20;;;;;;5032941;28;20193;-71
2021/12/22 05:43:52;;;;;;;44.67;40.97;;;-4.20;92.50;;;;;;5033028;28;20221;-71
2021/12/22 05:46:20;;;;;;;49.17;44.72;;;-4.20;92.30;;;;;;5032970;28;20712;-71
2021/12/22 05:48:47;;;;;;;46.72;42.60;;;-4.10;92.50;;;;;;5032982;28;20200;-71
2021/12/22 05:51:14;;;;;;;48.80;44.25;;;-4.00;92.40;;;;;;5032864;28;20308;-71
2021/12/22 05:53:41;;;;;;;47.42;43.22;;;-3.90;92.40;;;;;;5032948;28;20225;-72
2021/12/22 05:56:08;;;;;;;47.10;42.60;;;-4.00;91.90;;;;;;5032868;28;20212;-71
2021/12/22 05:58:36;;;;;;;46.58;42.72;;;-4.00;91.90;;;;;;5032935;28;20659;-71
2021/12/22 06:01:03;;;;;;;47.90;43.60;;;-3.90;92.10;;;;;;5032645;28;20196;-71
2021/12/22 06:03:30;;;;;;;46.83;42.83;;;-3.90;91.80;;;;;;5032680;28;20304;-71
2021/12/22 06:05:57;;;;;;;46.65;42.50;;;-4.00;91.50;;;;;;5032776;28;20655;-71
2021/12/22 06:08:24;;;;;;;46.20;42.00;;;-4.00;91.40;;;;;;5032593;28;20200;-71
2021/12/22 06:10:51;;;;;;;45.20;41.40;;;-4.00;91.00;;;;;;5032652;28;20674;-71
2021/12/22 06:13:18;;;;;;;45.85;42.00;;;-4.10;91.00;;;;;;5032658;28;20194;-71
2021/12/22 06:15:46;;;;;;;44.22;40.58;;;-4.00;90.80;;;;;;5032539;28;20288;-71
2021/12/22 06:18:13;;;;;;;44.47;40.40;;;-4.00;90.60;;;;;;5032854;28;20193;-72
2021/12/22 06:20:40;;;;;;;44.38;40.47;;;-4.10;90.30;;;;;;5032513;28;20204;-71
2021/12/22 06:23:06;;;;;;;42.15;38.65;;;-4.20;90.20;;;;;;5032786;28;20189;-71
2021/12/22 06:25:33;;;;;;;46.00;42.20;;;-4.20;90.30;;;;;;5032548;28;20307;-71
2021/12/22 06:28:00;;;;;;;43.65;39.95;;;-4.30;90.30;;;;;;5032729;28;20215;-72
2021/12/22 06:30:27;;;;;;;42.47;39.00;;;-4.30;90.40;;;;;;5032820;28;20197;-72
2021/12/22 06:32:55;;;;;;;45.55;41.85;;;-4.40;90.20;;;;;;5036817;28;20586;-72
2021/12/22 06:35:22;;;;;;;44.03;40.13;;;-4.40;90.30;;;;;;5036478;28;20227;-72
2021/12/22 06:37:50;;;;;;;42.63;39.22;;;-4.40;90.20;;;;;;5036708;28;20197;-72
2021/12/22 06:40:17;;;;;;;44.03;40.22;;;-4.30;90.20;;;;;;5036173;28;20547;-72
2021/12/22 06:42:44;;;;;;;44.72;40.95;;;-4.30;90.10;;;;;;5036644;28;20532;-72
2021/12/22 06:45:13;;;;;;;46.30;42.17;;;-4.30;90.20;;;;;;5036367;28;20629;-72
2021/12/22 06:47:40;;;;;;;46.53;42.22;;;-4.30;90.40;;;;;;5036469;28;20204;-72
2021/12/22 06:50:10;;;;;;;46.78;42.38;;;-4.30;90.20;;;;;;5036178;28;20204;-72
2021/12/22 06:52:37;;;;;;;49.50;44.67;;;-4.30;90.40;;;;;;5036275;28;20643;-72
2021/12/22 06:55:05;;;;;;;50.33;45.40;;;-4.20;90.50;;;;;;5036099;28;20227;-72
2021/12/22 06:57:33;;;;;;;1999.90;995.72;;;-4.20;92.40;;;;;;5036257;28;20211;-72
2021/12/22 07:00:02;;;;;;;51.55;46.50;;;-4.20;92.80;;;;;;5036060;28;20204;-72
2021/12/22 07:02:31;;;;;;;1999.90;848.28;;;-4.20;97.30;;;;;;5036161;28;20732;-71
2021/12/22 07:04:58;;;;;;;52.17;46.03;;;-4.10;96.50;;;;;;5036112;28;20226;-71
2021/12/22 07:07:26;;;;;;;49.58;44.75;;;-4.10;98.50;;;;;;5036095;28;20233;-71
2021/12/22 07:09:53;;;;;;;1999.90;556.92;;;-4.10;97.20;;;;;;5037084;28;20244;-71
2021/12/22 07:12:20;;;;;;;1999.90;999.90;;;-4.20;95.70;;;;;;5036075;28;20347;-71
2021/12/22 07:14:47;;;;;;;49.45;44.75;;;-4.10;99.20;;;;;;5036076;28;20217;-71
2021/12/22 07:17:14;;;;;;;1999.90;999.90;;;-4.00;99.90;;;;;;5036106;28;20292;-71
2021/12/22 07:19:41;;;;;;;55.03;49.42;;;-3.90;99.90;;;;;;5035852;28;20201;-71
2021/12/22 07:22:08;;;;;;;1999.90;999.90;;;-3.90;99.90;;;;;;5035669;28;20205;-71
2021/12/22 07:24:37;;;;;;;55.15;49.55;;;-3.90;99.90;;;;;;5035601;28;20226;-71
2021/12/22 07:27:04;;;;;;;52.60;46.90;;;-3.90;99.90;;;;;;5035685;28;20204;-71
2021/12/22 07:29:31;;;;;;;338.20;77.35;;;-3.80;99.40;;;;;;5035576;28;20288;-71
2021/12/22 07:31:58;;;;;;;212.25;67.65;;;-3.80;98.00;;;;;;5035634;28;20223;-71
2021/12/22 07:34:34;;;;;;;271.55;78.15;;;-3.80;99.90;;;;;;5035119;28;20225;-71
2021/12/22 07:37:10;;;;;;;427.77;91.47;;;-3.70;99.90;;;;;;5035426;28;20304;-71
2021/12/22 07:39:39;;;;;;;1999.90;773.38;;;-3.70;99.10;;;;;;5035215;28;20197;-71
2021/12/22 07:42:06;;;;;;;1999.90;376.08;;;-3.60;98.90;;;;;;5035514;28;20228;-71
2021/12/22 07:44:33;;;;;;;1999.90;963.38;;;-3.60;99.30;;;;;;5035385;28;20300;-71
2021/12/22 07:47:00;;;;;;;54.95;49.60;;;-3.50;99.30;;;;;;5035202;28;20290;-71
2021/12/22 07:49:26;;;;;;;1999.90;709.78;;;-3.50;99.10;;;;;;5035147;28;20225;-71
2021/12/22 07:51:53;;;;;;;665.88;128.60;;;-3.40;99.20;;;;;;5035183;28;20223;-71
2021/12/22 07:54:20;;;;;;;1999.90;999.90;;;-3.30;99.90;;;;;;5035065;28;20218;-71
2021/12/22 07:56:48;;;;;;;53.40;48.10;;;-3.30;99.90;;;;;;5035133;28;20296;-72
2021/12/22 07:59:15;;;;;;;862.08;168.30;;;-3.30;99.90;;;;;;5035022;28;20289;-71
2021/12/22 08:01:42;;;;;;;78.35;52.50;;;-3.20;99.90;;;;;;5034946;28;20292;-72
2021/12/22 08:04:09;;;;;;;51.65;46.65;;;-3.20;99.90;;;;;;5034933;28;20312;-72
2021/12/22 08:06:36;;;;;;;50.47;45.90;;;-3.10;99.90;;;;;;5034964;28;20198;-72
2021/12/22 08:09:03;;;;;;;49.55;44.95;;;-3.10;98.90;;;;;;5034882;28;20285;-72
2021/12/22 08:11:30;;;;;;;49.97;45.53;;;-3.10;96.60;;;;;;5034751;28;20288;-72
2021/12/22 08:13:59;;;;;;;48.38;43.92;;;-3.10;96.60;;;;;;5034636;28;20217;-72
2021/12/22 08:16:26;;;;;;;47.65;42.90;;;-3.10;95.70;;;;;;5034663;28;20198;-72
2021/12/22 08:18:53;;;;;;;1999.90;511.60;;;-3.10;94.80;;;;;;5034989;28;20201;-72
2021/12/22 08:21:20;;;;;;;1999.90;999.90;;;-3.20;94.40;;;;;;5034579;28;20613;-72
2021/12/22 08:23:46;;;;;;;1999.90;763.45;;;-3.20;97.80;;;;;;5034456;28;20552;-72
2021/12/22 08:26:13;;;;;;;50.97;46.10;;;-3.20;99.90;;;;;;5034697;28;20224;-72
2021/12/22 08:28:40;;;;;;;52.38;46.72;;;-3.20;99.50;;;;;;5034527;28;20194;-72
2021/12/22 08:31:08;;;;;;;50.95;45.95;;;-3.10;98.20;;;;;;5034280;28;20664;-72
2021/12/22 08:33:43;;;;;;;45.55;41.25;;;-3.10;96.60;;;;;;5034207;28;20221;-72
2021/12/22 08:38:54;;;;;;;48.92;44.38;;;-3.20;93.00;;;;;;5034447;28;20657;-72
2021/12/22 08:41:24;;;;;;;48.97;44.33;;;-3.20;92.30;;;;;;5033962;28;20207;-72
2021/12/22 08:43:52;;;;;;;48.47;43.92;;;-3.10;92.80;;;;;;5034300;28;20219;-72
2021/12/22 08:46:21;;;;;;;48.78;44.28;;;-3.00;92.30;;;;;;5034427;28;20567;-72
2021/12/22 08:48:48;;;;;;;47.40;43.25;;;-2.90;91.80;;;;;;5034086;28;20201;-72
2021/12/22 08:51:16;;;;;;;47.30;43.10;;;-2.90;90.80;;;;;;5042089;22;20318;-73
2021/12/22 08:53:43;;;;;;;49.83;45.13;;;-2.80;91.00;;;;;;5033172;28;20233;-72
2021/12/22 08:56:10;;;;;;;47.60;42.88;;;-2.70;90.90;;;;;;5034018;28;20202;-72
2021/12/22 08:58:37;;;;;;;45.03;41.25;;;-2.70;90.00;;;;;;5034053;28;20195;-72
2021/12/22 09:01:05;;;;;;;49.05;44.50;;;-2.60;89.70;;;;;;5033910;28;20194;-72
2021/12/22 09:03:34;;;;;;;47.45;43.33;;;-2.50;89.80;;;;;;5033888;28;20556;-72
2021/12/22 09:06:01;;;;;;;49.60;45.20;;;-2.50;89.60;;;;;;5033978;28;20199;-72
2021/12/22 09:08:28;;;;;;;46.13;41.58;;;-2.40;89.30;;;;;;5033974;28;20196;-72
2021/12/22 09:10:55;;;;;;;47.22;43.03;;;-2.30;88.90;;;;;;5033895;28;20200;-72
2021/12/22 09:13:22;;;;;;;49.10;44.50;;;-2.20;88.60;;;;;;5033635;28;20233;-72
2021/12/22 09:15:50;;;;;;;52.00;47.25;;;-2.20;88.00;;;;;;5033732;28;20207;-72
2021/12/22 09:18:18;;;;;;;50.63;45.60;;;-2.20;88.00;;;;;;5033791;28;20631;-73
2021/12/22 09:20:47;;;;;;;48.83;44.65;;;-2.00;88.10;;;;;;5033440;28;20209;-72
2021/12/22 09:23:14;;;;;;;231.93;65.68;;;-1.90;88.10;;;;;;5033423;28;20251;-72
2021/12/22 09:25:41;;;;;;;149.60;58.22;;;-1.90;89.20;;;;;;5033299;28;20290;-72
2021/12/22 09:28:09;;;;;;;53.53;48.78;;;-1.80;90.70;;;;;;5033372;28;20631;-72
2021/12/22 09:30:38;;;;;;;50.88;46.28;;;-1.70;93.30;;;;;;5033101;28;20262;-72
2021/12/22 09:33:07;;;;;;;625.35;109.40;;;-1.60;91.60;;;;;;5033278;28;20220;-72
2021/12/22 09:35:34;;;;;;;43.75;39.75;;;-1.50;90.40;;;;;;5033119;28;20259;-72
2021/12/22 09:38:03;;;;;;;1999.90;483.70;;;-1.40;90.20;;;;;;5033197;28;20666;-72
2021/12/22 09:40:30;;;;;;;47.22;43.13;;;-1.30;91.60;;;;;;5032930;28;20201;-72
2021/12/22 09:42:56;;;;;;;48.72;44.15;;;-1.20;91.30;;;;;;5033315;28;20662;-72
2021/12/22 09:45:25;;;;;;;46.85;42.78;;;-1.00;90.00;;;;;;5033107;28;20224;-72
2021/12/22 09:48:17;;;;;;;48.00;43.47;;;-1.10;88.30;;;;;;5033004;28;20586;-73
2021/12/22 09:50:51;;;;;;;46.22;42.13;;;-0.90;88.40;;;;;;5032711;28;20209;-72
2021/12/22 09:53:21;;;;;;;42.90;39.15;;;-0.90;87.20;;;;;;5032918;28;20643;-73
2021/12/22 09:55:49;;;;;;;42.03;38.42;;;-0.90;84.90;;;;;;5033070;28;20615;-72
2021/12/22 09:58:16;;;;;;;40.85;37.42;;;-0.90;84.20;;;;;;5033077;28;20244;-72
2021/12/22 10:00:44;;;;;;;44.70;40.85;;;-0.80;86.60;;;;;;5032734;28;20574;-72
2021/12/22 10:03:12;;;;;;;43.60;39.70;;;-0.70;84.40;;;;;;5032571;28;20677;-72
2021/12/22 10:05:41;;;;;;;45.15;41.13;;;-0.60;83.90;;;;;;5032810;28;20203;-73
2021/12/22 10:08:10;;;;;;;40.30;36.67;;;-0.50;86.10;;;;;;5032725;28;20280;-73
2021/12/22 10:10:40;;;;;;;1811.05;273.50;;;-0.40;86.10;;;;;;5032746;28;20560;-72
2021/12/22 10:13:09;;;;;;;44.38;40.28;;;-0.30;86.60;;;;;;5032745;28;20320;-72
2021/12/22 10:15:36;;;;;;;43.45;39.38;;;-0.20;88.70;;;;;;5032910;28;20304;-72
2021/12/22 10:18:11;;;;;;;38.60;35.60;;;-0.10;87.40;;;;;;5032678;28;20288;-72
2021/12/22 10:20:39;;;;;;;42.38;38.78;;;0.10;84.40;;;;;;5032634;28;20299;-72
2021/12/22 10:23:21;;;;;;;40.42;36.92;;;0.10;82.10;;;;;;5032684;28;20714;-72
2021/12/22 10:25:54;;;;;;;43.75;39.97;;;0.20;80.90;;;;;;5032598;28;20201;-72
2021/12/22 10:28:22;;;;;;;41.05;37.55;;;0.20;80.10;;;;;;5032566;28;20216;-72
2021/12/22 10:30:51;;;;;;;45.33;41.33;;;0.20;79.80;;;;;;5032784;28;20201;-73
2021/12/22 10:33:21;;;;;;;112.95;43.30;;;0.30;88.20;;;;;;5032345;28;20336;-72
2021/12/22 10:35:50;;;;;;;42.45;38.58;;;0.30;88.30;;;;;;5032182;28;20255;-73
2021/12/22 10:38:21;;;;;;;40.33;36.92;;;0.40;87.70;;;;;;5032514;28;20223;-72
2021/12/22 10:40:50;;;;;;;43.55;39.60;;;0.50;84.70;;;;;;5032255;28;20197;-73
2021/12/22 10:43:21;;;;;;;41.22;37.80;;;0.50;84.00;;;;;;5032467;28;20197;-72
2021/12/22 10:45:51;;;;;;;44.15;40.33;;;0.60;81.40;;;;;;5032509;28;20200;-72
2021/12/22 10:51:08;;;;;;;42.03;38.38;;;0.70;79.70;;;;;;5032372;28;20204;-73
2021/12/22 10:53:43;;;;;;;254.98;63.83;;;0.80;79.00;;;;;;5032272;28;20221;-72
2021/12/22 10:56:21;;;;;;;39.63;36.42;;;0.80;87.40;;;;;;5032397;28;20677;-73
2021/12/22 10:59:00;;;;;;;38.70;35.60;;;0.90;82.90;;;;;;5032469;28;20201;-72
2021/12/22 11:01:27;;;;;;;39.80;36.50;;;0.90;80.30;;;;;;5032456;28;20205;-72
2021/12/22 11:04:02;;;;;;;43.22;39.38;;;0.90;79.00;;;;;;5032143;28;20223;-72
2021/12/22 11:06:31;;;;;;;41.92;38.45;;;1.00;79.60;;;;;;5032391;28;20201;-72
2021/12/22 11:09:01;;;;;;;43.63;39.50;;;1.10;79.30;;;;;;5032351;28;20207;-73
2021/12/22 11:11:36;;;;;;;40.65;37.20;;;1.10;79.20;;;;;;5032313;28;20209;-72
2021/12/22 11:14:13;;;;;;;41.50;38.05;;;1.20;78.40;;;;;;5031958;28;20229;-72
2021/12/22 11:16:58;;;;;;;42.95;39.05;;;1.20;77.70;;;;;;5032843;28;20256;-73
2021/12/22 11:19:28;;;;;;;41.22;38.15;;;1.40;76.10;;;;;;5035670;28;20203;-72
2021/12/22 11:22:06;;;;;;;39.15;36.00;;;1.40;76.60;;;;;;5035836;28;20621;-73
2021/12/22 11:24:37;;;;;;;41.15;37.75;;;1.40;76.30;;;;;;5035733;28;20249;-73
2021/12/22 11:27:05;;;;;;;39.45;36.15;;;1.50;78.40;;;;;;5036084;28;20205;-72
2021/12/22 11:29:35;;;;;;;42.42;38.75;;;1.60;76.90;;;;;;5035883;28;20225;-72
2021/12/22 11:32:04;;;;;;;38.97;35.97;;;1.80;75.80;;;;;;5035830;28;20569;-72
2021/12/22 11:34:35;;;;;;;42.15;38.47;;;1.90;77.20;;;;;;5035343;28;20227;-73
2021/12/22 11:37:03;;;;;;;42.50;38.90;;;1.90;76.50;;;;;;5035540;28;20208;-72
2021/12/22 11:39:31;;;;;;;41.70;38.10;;;2.00;74.70;;;;;;5035269;28;20205;-72
2021/12/22 11:42:01;;;;;;;80.43;41.20;;;2.00;75.80;;;;;;5035534;28;20205;-72
2021/12/22 11:44:30;;;;;;;40.72;37.53;;;2.00;81.20;;;;;;5035375;28;20214;-73
2021/12/22 11:47:00;;;;;;;40.17;36.67;;;2.10;78.60;;;;;;5035458;28;20299;-73
2021/12/22 11:49:29;;;;;;;42.75;39.28;;;2.20;80.90;;;;;;5035178;28;20223;-73
2021/12/22 11:51:57;;;;;;;43.72;39.92;;;2.20;78.10;;;;;;5035155;28;20622;-72
2021/12/22 11:54:27;;;;;;;41.42;37.88;;;2.40;77.40;;;;;;5035116;28;20625;-73
2021/12/22 11:56:57;;;;;;;42.03;38.15;;;2.50;77.80;;;;;;5035208;28;20276;-72
2021/12/22 11:59:37;;;;;;;42.38;38.60;;;2.60;75.90;;;;;;5035168;28;20284;-72
2021/12/22 12:02:25;;;;;;;41.58;38.13;;;2.60;75.20;;;;;;5035014;28;20216;-73
2021/12/22 12:04:54;;;;;;;39.83;36.72;;;2.60;75.80;;;;;;5035054;28;20213;-73
2021/12/22 12:07:42;;;;;;;41.90;38.30;;;2.60;74.30;;;;;;5035109;28;20204;-72
2021/12/22 12:10:35;;;;;;;41.22;37.92;;;2.70;73.50;;;;;;5034811;28;20194;-72
2021/12/22 12:13:07;;;;;;;40.58;37.30;;;2.70;76.70;;;;;;5034900;28;20217;-72
2021/12/22 12:21:40;;;;;;;42.08;38.65;;;2.70;74.10;;;;;;5034958;28;20275;-73
2021/12/22 12:22:17;;;;;;;39.55;36.05;;;2.70;79.40;;;;;;5034782;28;20204;-72
2021/12/22 12:24:50;;;;;;;43.05;39.10;;;2.70;75.70;;;;;;5034663;28;20213;-73
2021/12/22 12:27:36;;;;;;;41.75;38.08;;;2.80;74.80;;;;;;5034535;28;20236;-72
2021/12/22 12:30:07;;;;;;;42.33;39.13;;;2.70;78.40;;;;;;5033754;28;20204;-73
2021/12/22 12:33:13;;;;;;;41.08;37.53;;;2.70;75.20;;;;;;5034560;28;20663;-72
2021/12/22 12:35:57;;;;;;;41.67;37.88;;;2.70;73.70;;;;;;5029214;28;20201;-73
2021/12/22 12:38:27;;;;;;;42.70;38.95;;;2.70;74.10;;;;;;5034393;28;20300;-73
2021/12/22 12:41:28;;;;;;;42.08;38.75;;;2.70;76.20;;;;;;5034477;28;20296;-73
2021/12/22 12:44:05;;;;;;;42.10;38.40;;;2.70;75.80;;;;;;5034256;28;20213;-73
2021/12/22 12:46:47;;;;;;;39.33;36.13;;;2.70;76.70;;;;;;5034283;28;20291;-72
2021/12/22 12:49:35;;;;;;;42.60;39.00;;;2.80;76.20;;;;;;5034081;28;20204;-73